CCA1355 ZBAA-ZJHK
Flight info
| Callsign | CCA1355 |
|---|---|
| Flight time | 3h 19m |
| Altitude | 36100 |
| Route | RUSDO9Z RUSDO W45 LYA/K0896S1130 W45 ML/K0906S1100 W45 OVLAR/K0902S1160 W45 NUPTI R343 LBN/K0911S1130 DCT BHY W70 NYB |
| Aircraft | B77W/H-SDE1E2E3FGHIJ2J3J4J5M1RWXY/LB1D1 |
Departure
| Time | 2026-04-22 03:20 |
|---|---|
| Airport | Beijing Capital International Airport (ZBAA) |
Arrival
| Time | 2026-04-22 06:39 |
|---|---|
| Airport | Haikou Meilan International Airport (ZJHK) |
| Time | Latitude | Longitude | Altitude | Speed | Heading |
|---|---|---|---|---|---|
| 2026-04-22 02:47 | 40.05629 | 116.61075 | 130 ft | 0 kts | 250° |
| 2026-04-22 03:06 | 40.05631 | 116.61081 | 130 ft | 2 kts | 250° |
| 2026-04-22 03:06 | 40.05639 | 116.61109 | 130 ft | 3 kts | 249° |
| 2026-04-22 03:07 | 40.05647 | 116.61142 | 130 ft | 3 kts | 260° |
| 2026-04-22 03:07 | 40.05648 | 116.61175 | 130 ft | 3 kts | 276° |
| 2026-04-22 03:07 | 40.05643 | 116.61201 | 130 ft | 1 kts | 306° |
| 2026-04-22 03:07 | 40.05630 | 116.61213 | 130 ft | 3 kts | 335° |
| 2026-04-22 03:08 | 40.05609 | 116.61227 | 130 ft | 1 kts | 333° |
| 2026-04-22 03:13 | 40.05609 | 116.61226 | 130 ft | 2 kts | 333° |
| 2026-04-22 03:13 | 40.05680 | 116.61184 | 130 ft | 14 kts | 343° |
| 2026-04-22 03:13 | 40.05793 | 116.61159 | 130 ft | 17 kts | 353° |
| 2026-04-22 03:14 | 40.05927 | 116.61134 | 130 ft | 20 kts | 349° |
| 2026-04-22 03:14 | 40.06068 | 116.61117 | 130 ft | 19 kts | 352° |
| 2026-04-22 03:14 | 40.06195 | 116.61095 | 130 ft | 16 kts | 353° |
| 2026-04-22 03:14 | 40.06246 | 116.61008 | 130 ft | 12 kts | 262° |
| 2026-04-22 03:15 | 40.06233 | 116.60892 | 130 ft | 14 kts | 263° |
| 2026-04-22 03:15 | 40.06221 | 116.60731 | 130 ft | 20 kts | 265° |
| 2026-04-22 03:15 | 40.06201 | 116.60527 | 130 ft | 25 kts | 263° |
| 2026-04-22 03:15 | 40.06178 | 116.60304 | 130 ft | 23 kts | 263° |
| 2026-04-22 03:16 | 40.06123 | 116.60184 | 130 ft | 13 kts | 180° |
| 2026-04-22 03:16 | 40.06026 | 116.60186 | 130 ft | 14 kts | 177° |
| 2026-04-22 03:16 | 40.05917 | 116.60194 | 130 ft | 17 kts | 173° |
| 2026-04-22 03:16 | 40.05789 | 116.60214 | 130 ft | 17 kts | 171° |
| 2026-04-22 03:17 | 40.05671 | 116.60235 | 130 ft | 16 kts | 174° |
| 2026-04-22 03:17 | 40.05566 | 116.60241 | 130 ft | 12 kts | 208° |
| 2026-04-22 03:17 | 40.05533 | 116.60137 | 130 ft | 12 kts | 270° |
| 2026-04-22 03:17 | 40.05564 | 116.60046 | 130 ft | 10 kts | 309° |
| 2026-04-22 03:18 | 40.05614 | 116.60004 | 130 ft | 4 kts | 353° |
| 2026-04-22 03:18 | 40.05626 | 116.60003 | 130 ft | 0 kts | 354° |
| 2026-04-22 03:19 | 40.05632 | 116.60002 | 130 ft | 7 kts | 354° |
| 2026-04-22 03:19 | 40.05919 | 116.59959 | 130 ft | 82 kts | 353° |
| 2026-04-22 03:19 | 40.06748 | 116.59822 | 133 ft | 156 kts | 351° |
| 2026-04-22 03:20 | 40.07939 | 116.59612 | 572 ft | 183 kts | 351° |
| 2026-04-22 03:20 | 40.09191 | 116.59372 | 1476 ft | 185 kts | 355° |
| 2026-04-22 03:20 | 40.10479 | 116.59208 | 2147 ft | 192 kts | 358° |
| 2026-04-22 03:20 | 40.11868 | 116.59023 | 2662 ft | 210 kts | 356° |
| 2026-04-22 03:21 | 40.13377 | 116.58789 | 3294 ft | 226 kts | 356° |
| 2026-04-22 03:21 | 40.14970 | 116.58538 | 3987 ft | 239 kts | 355° |
| 2026-04-22 03:21 | 40.16656 | 116.58272 | 4697 ft | 252 kts | 355° |
| 2026-04-22 03:21 | 40.18423 | 116.57992 | 5478 ft | 263 kts | 354° |
| 2026-04-22 03:22 | 40.20235 | 116.57705 | 6448 ft | 266 kts | 354° |
| 2026-04-22 03:22 | 40.22061 | 116.57416 | 7437 ft | 267 kts | 353° |
| 2026-04-22 03:22 | 40.23896 | 116.57100 | 8342 ft | 270 kts | 348° |
| 2026-04-22 03:22 | 40.25603 | 116.56152 | 9252 ft | 273 kts | 326° |
| 2026-04-22 03:23 | 40.27087 | 116.54588 | 10193 ft | 275 kts | 320° |
| 2026-04-22 03:23 | 40.28480 | 116.52814 | 10845 ft | 289 kts | 313° |
| 2026-04-22 03:23 | 40.29745 | 116.50670 | 11430 ft | 306 kts | 304° |
| 2026-04-22 03:23 | 40.30785 | 116.48205 | 12005 ft | 322 kts | 296° |
| 2026-04-22 03:24 | 40.31556 | 116.45387 | 12602 ft | 338 kts | 287° |
| 2026-04-22 03:24 | 40.31974 | 116.42309 | 13195 ft | 355 kts | 277° |
| 2026-04-22 03:24 | 40.31985 | 116.39027 | 13806 ft | 370 kts | 270° |
| 2026-04-22 03:24 | 40.31865 | 116.35589 | 14517 ft | 382 kts | 271° |
| 2026-04-22 03:25 | 40.31795 | 116.32139 | 15415 ft | 386 kts | 270° |
| 2026-04-22 03:25 | 40.31748 | 116.28618 | 16462 ft | 387 kts | 271° |
| 2026-04-22 03:25 | 40.31715 | 116.25135 | 17513 ft | 388 kts | 271° |
| 2026-04-22 03:25 | 40.31692 | 116.21598 | 18532 ft | 389 kts | 271° |
| 2026-04-22 03:26 | 40.31675 | 116.18103 | 19443 ft | 392 kts | 271° |
| 2026-04-22 03:26 | 40.31659 | 116.14536 | 20243 ft | 397 kts | 271° |
| 2026-04-22 03:26 | 40.31640 | 116.10891 | 21075 ft | 400 kts | 269° |
| 2026-04-22 03:26 | 40.31370 | 116.07290 | 21965 ft | 403 kts | 262° |
| 2026-04-22 03:27 | 40.30706 | 116.03724 | 22761 ft | 408 kts | 254° |
| 2026-04-22 03:27 | 40.29644 | 116.00264 | 23458 ft | 415 kts | 247° |
| 2026-04-22 03:27 | 40.28197 | 115.97024 | 24208 ft | 423 kts | 239° |
| 2026-04-22 03:27 | 40.26337 | 115.94006 | 25016 ft | 430 kts | 231° |
| 2026-04-22 03:28 | 40.24110 | 115.91357 | 25841 ft | 436 kts | 223° |
| 2026-04-22 03:28 | 40.21589 | 115.89175 | 26603 ft | 445 kts | 215° |
| 2026-04-22 03:28 | 40.18812 | 115.87303 | 27262 ft | 451 kts | 213° |
| 2026-04-22 03:28 | 40.15988 | 115.85456 | 27947 ft | 454 kts | 213° |
| 2026-04-22 03:29 | 40.13183 | 115.83608 | 28652 ft | 457 kts | 214° |
| 2026-04-22 03:29 | 40.10333 | 115.81716 | 29308 ft | 460 kts | 214° |
| 2026-04-22 03:29 | 40.07523 | 115.79843 | 30100 ft | 459 kts | 214° |
| 2026-04-22 03:29 | 40.04693 | 115.77954 | 30939 ft | 455 kts | 214° |
| 2026-04-22 03:30 | 40.01888 | 115.76078 | 31750 ft | 450 kts | 215° |
| 2026-04-22 03:30 | 39.99151 | 115.74247 | 32623 ft | 441 kts | 216° |
| 2026-04-22 03:30 | 39.96408 | 115.72408 | 33290 ft | 437 kts | 216° |
| 2026-04-22 03:30 | 39.93738 | 115.70616 | 33844 ft | 435 kts | 217° |
| 2026-04-22 03:31 | 39.91055 | 115.68816 | 34410 ft | 432 kts | 217° |
| 2026-04-22 03:31 | 39.88459 | 115.66941 | 34931 ft | 424 kts | 222° |
| 2026-04-22 03:31 | 39.86093 | 115.64711 | 35320 ft | 416 kts | 228° |
| 2026-04-22 03:31 | 39.83995 | 115.62147 | 35623 ft | 412 kts | 234° |
| 2026-04-22 03:32 | 39.82184 | 115.59291 | 35854 ft | 409 kts | 241° |
| 2026-04-22 03:32 | 39.80685 | 115.56200 | 36100 ft | 407 kts | 246° |
| 2026-04-22 03:32 | 39.78079 | 115.49731 | 36117 ft | 400 kts | 248° |
| 2026-04-22 03:33 | 39.75523 | 115.43391 | 36120 ft | 396 kts | 248° |
| 2026-04-22 03:33 | 39.73035 | 115.37035 | 36134 ft | 397 kts | 248° |
| 2026-04-22 03:34 | 39.70524 | 115.30659 | 36147 ft | 397 kts | 248° |
| 2026-04-22 03:34 | 39.67995 | 115.24270 | 36149 ft | 396 kts | 246° |
| 2026-04-22 03:35 | 39.65479 | 115.17934 | 36149 ft | 398 kts | 247° |
| 2026-04-22 03:35 | 39.62948 | 115.11581 | 36148 ft | 397 kts | 247° |
| 2026-04-22 03:36 | 39.60426 | 115.05266 | 36160 ft | 395 kts | 246° |
| 2026-04-22 03:36 | 39.57887 | 114.98920 | 36158 ft | 397 kts | 246° |
| 2026-04-22 03:37 | 39.55358 | 114.92616 | 36167 ft | 397 kts | 247° |
| 2026-04-22 03:37 | 39.52812 | 114.86282 | 36158 ft | 395 kts | 247° |
| 2026-04-22 03:38 | 39.50275 | 114.79981 | 36155 ft | 396 kts | 246° |
| 2026-04-22 03:38 | 39.47732 | 114.73682 | 36162 ft | 394 kts | 246° |
| 2026-04-22 03:39 | 39.45190 | 114.67395 | 36160 ft | 397 kts | 247° |
| 2026-04-22 03:39 | 39.42632 | 114.61084 | 36151 ft | 396 kts | 247° |
| 2026-04-22 03:40 | 39.40077 | 114.54794 | 36148 ft | 394 kts | 247° |
| 2026-04-22 03:40 | 39.37528 | 114.48533 | 36148 ft | 395 kts | 246° |
| 2026-04-22 03:41 | 39.34975 | 114.42290 | 36135 ft | 395 kts | 246° |
| 2026-04-22 03:41 | 39.32415 | 114.36042 | 36139 ft | 393 kts | 247° |
| 2026-04-22 03:42 | 39.29860 | 114.29805 | 36158 ft | 395 kts | 246° |
| 2026-04-22 03:42 | 39.27292 | 114.23600 | 36157 ft | 395 kts | 243° |
| 2026-04-22 03:43 | 39.23902 | 114.17928 | 36167 ft | 403 kts | 232° |
| 2026-04-22 03:43 | 39.19482 | 114.13460 | 36161 ft | 412 kts | 219° |
| 2026-04-22 03:44 | 39.16875 | 114.11726 | 36161 ft | 426 kts | 212° |
| 2026-04-22 03:44 | 39.14102 | 114.10427 | 36154 ft | 430 kts | 206° |
| 2026-04-22 03:44 | 39.08270 | 114.08405 | 36155 ft | 438 kts | 206° |
| 2026-04-22 03:45 | 39.02350 | 114.06349 | 36158 ft | 439 kts | 205° |
| 2026-04-22 03:45 | 38.96525 | 114.04312 | 36149 ft | 434 kts | 206° |
| 2026-04-22 03:46 | 38.90659 | 114.02241 | 36153 ft | 439 kts | 206° |
| 2026-04-22 03:46 | 38.84769 | 114.00165 | 36156 ft | 437 kts | 206° |
| 2026-04-22 03:47 | 38.78950 | 113.98114 | 36154 ft | 434 kts | 206° |
| 2026-04-22 03:47 | 38.73100 | 113.96049 | 36144 ft | 436 kts | 206° |
| 2026-04-22 03:48 | 38.67285 | 113.94005 | 36136 ft | 433 kts | 206° |
| 2026-04-22 03:48 | 38.61442 | 113.91946 | 36124 ft | 437 kts | 206° |
| 2026-04-22 03:49 | 38.55603 | 113.89899 | 36110 ft | 434 kts | 206° |
| 2026-04-22 03:49 | 38.49809 | 113.87866 | 36102 ft | 435 kts | 206° |
| 2026-04-22 03:50 | 38.43976 | 113.85825 | 36100 ft | 433 kts | 206° |
| 2026-04-22 03:50 | 38.38212 | 113.83812 | 36096 ft | 431 kts | 206° |
| 2026-04-22 03:51 | 38.32381 | 113.81775 | 36098 ft | 436 kts | 206° |
| 2026-04-22 03:51 | 38.26543 | 113.79759 | 36097 ft | 431 kts | 206° |
| 2026-04-22 03:52 | 38.20728 | 113.77749 | 36102 ft | 434 kts | 206° |
| 2026-04-22 03:52 | 38.14899 | 113.75738 | 36103 ft | 434 kts | 206° |
| 2026-04-22 03:53 | 38.09082 | 113.73737 | 36108 ft | 435 kts | 206° |
| 2026-04-22 03:53 | 38.03234 | 113.71726 | 36108 ft | 434 kts | 206° |
| 2026-04-22 03:54 | 37.97454 | 113.69746 | 36115 ft | 428 kts | 206° |
| 2026-04-22 03:54 | 37.91691 | 113.67768 | 36114 ft | 433 kts | 206° |
| 2026-04-22 03:55 | 37.85895 | 113.65784 | 36121 ft | 432 kts | 206° |
| 2026-04-22 03:55 | 37.80069 | 113.63795 | 36123 ft | 434 kts | 206° |
| 2026-04-22 03:56 | 37.74298 | 113.61831 | 36120 ft | 428 kts | 206° |
| 2026-04-22 03:56 | 37.68504 | 113.59853 | 36125 ft | 434 kts | 206° |
| 2026-04-22 03:57 | 37.62710 | 113.57884 | 36131 ft | 436 kts | 206° |
| 2026-04-22 03:57 | 37.56860 | 113.55901 | 36134 ft | 434 kts | 206° |
| 2026-04-22 03:58 | 37.51027 | 113.53925 | 36138 ft | 434 kts | 206° |
| 2026-04-22 03:58 | 37.45246 | 113.51972 | 36149 ft | 432 kts | 206° |
| 2026-04-22 03:59 | 37.39394 | 113.49993 | 36149 ft | 433 kts | 206° |
| 2026-04-22 03:59 | 37.33581 | 113.48035 | 36139 ft | 432 kts | 206° |
| 2026-04-22 04:00 | 37.27774 | 113.46079 | 36142 ft | 433 kts | 206° |
| 2026-04-22 04:00 | 37.21948 | 113.44121 | 36142 ft | 433 kts | 206° |
| 2026-04-22 04:01 | 37.16151 | 113.42177 | 36137 ft | 433 kts | 206° |
| 2026-04-22 04:01 | 37.10374 | 113.40243 | 36123 ft | 430 kts | 206° |
| 2026-04-22 04:02 | 37.04557 | 113.38295 | 36131 ft | 433 kts | 206° |
| 2026-04-22 04:02 | 36.98734 | 113.36352 | 36130 ft | 433 kts | 206° |
| 2026-04-22 04:03 | 36.92945 | 113.34423 | 36150 ft | 430 kts | 206° |
| 2026-04-22 04:03 | 36.87100 | 113.32472 | 36156 ft | 437 kts | 205° |
| 2026-04-22 04:04 | 36.81289 | 113.30544 | 36155 ft | 436 kts | 205° |
| 2026-04-22 04:04 | 36.75397 | 113.28588 | 36158 ft | 437 kts | 205° |
| 2026-04-22 04:05 | 36.69508 | 113.26637 | 36152 ft | 437 kts | 205° |
| 2026-04-22 04:05 | 36.63656 | 113.24703 | 36155 ft | 435 kts | 205° |
| 2026-04-22 04:06 | 36.57780 | 113.22761 | 36148 ft | 438 kts | 205° |
| 2026-04-22 04:06 | 36.51902 | 113.20825 | 36146 ft | 434 kts | 205° |
| 2026-04-22 04:07 | 36.46049 | 113.18896 | 36137 ft | 438 kts | 205° |
| 2026-04-22 04:07 | 36.40175 | 113.16968 | 36136 ft | 436 kts | 205° |
| 2026-04-22 04:08 | 36.34261 | 113.15023 | 36131 ft | 440 kts | 205° |
| 2026-04-22 04:08 | 36.28378 | 113.13098 | 36127 ft | 439 kts | 205° |
| 2026-04-22 04:09 | 36.22544 | 113.10915 | 36123 ft | 431 kts | 211° |
| 2026-04-22 04:09 | 36.17041 | 113.08046 | 36124 ft | 428 kts | 212° |
| 2026-04-22 04:10 | 36.11583 | 113.05190 | 36124 ft | 428 kts | 212° |
| 2026-04-22 04:10 | 36.06075 | 113.02313 | 36123 ft | 432 kts | 212° |
| 2026-04-22 04:11 | 36.00573 | 112.99450 | 36131 ft | 429 kts | 212° |
| 2026-04-22 04:11 | 35.95043 | 112.96574 | 36120 ft | 435 kts | 212° |
| 2026-04-22 04:12 | 35.89467 | 112.93684 | 36125 ft | 432 kts | 212° |
| 2026-04-22 04:12 | 35.83944 | 112.90825 | 36120 ft | 430 kts | 212° |
| 2026-04-22 04:13 | 35.78432 | 112.87974 | 36124 ft | 433 kts | 212° |
| 2026-04-22 04:13 | 35.72890 | 112.85088 | 36114 ft | 433 kts | 212° |
| 2026-04-22 04:14 | 35.67347 | 112.82201 | 36232 ft | 434 kts | 212° |
| 2026-04-22 04:14 | 35.64595 | 112.80772 | 36116 ft | 427 kts | 212° |
| 2026-04-22 04:14 | 35.61850 | 112.79346 | 36118 ft | 430 kts | 212° |
| 2026-04-22 04:15 | 35.56302 | 112.76459 | 36117 ft | 434 kts | 212° |
| 2026-04-22 04:15 | 35.50754 | 112.73566 | 36112 ft | 432 kts | 211° |
| 2026-04-22 04:16 | 35.42481 | 112.69257 | 36115 ft | 433 kts | 212° |
| 2026-04-22 04:17 | 35.36946 | 112.66381 | 36110 ft | 431 kts | 211° |
| 2026-04-22 04:17 | 35.31438 | 112.63524 | 36107 ft | 433 kts | 212° |
| 2026-04-22 04:18 | 35.25855 | 112.60628 | 36104 ft | 435 kts | 211° |
| 2026-04-22 04:18 | 35.20340 | 112.57778 | 36101 ft | 435 kts | 211° |
| 2026-04-22 04:19 | 35.14712 | 112.54892 | 36095 ft | 435 kts | 211° |
| 2026-04-22 04:19 | 35.09047 | 112.52262 | 36104 ft | 440 kts | 206° |
| 2026-04-22 04:20 | 35.03177 | 112.50106 | 36092 ft | 444 kts | 205° |
| 2026-04-22 04:20 | 34.97268 | 112.47943 | 36088 ft | 443 kts | 206° |
| 2026-04-22 04:21 | 34.91339 | 112.45772 | 36089 ft | 444 kts | 205° |
| 2026-04-22 04:21 | 34.85450 | 112.43619 | 36100 ft | 443 kts | 206° |
| 2026-04-22 04:22 | 34.79495 | 112.41441 | 36084 ft | 445 kts | 205° |
| 2026-04-22 04:22 | 34.73406 | 112.39864 | 36071 ft | 457 kts | 193° |
| 2026-04-22 04:23 | 34.66960 | 112.40087 | 36006 ft | 467 kts | 186° |
| 2026-04-22 04:23 | 34.60426 | 112.40660 | 36093 ft | 472 kts | 186° |
| 2026-04-22 04:24 | 34.53867 | 112.41233 | 36091 ft | 473 kts | 186° |
| 2026-04-22 04:24 | 34.47301 | 112.41801 | 36095 ft | 473 kts | 186° |
| 2026-04-22 04:24 | 34.44042 | 112.42082 | 36244 ft | 475 kts | 185° |
| 2026-04-22 04:25 | 34.40726 | 112.42367 | 36100 ft | 470 kts | 185° |
| 2026-04-22 04:25 | 34.34217 | 112.42925 | 36098 ft | 470 kts | 185° |
| 2026-04-22 04:26 | 34.27658 | 112.43484 | 36099 ft | 474 kts | 185° |
| 2026-04-22 04:26 | 34.21126 | 112.44043 | 36095 ft | 468 kts | 185° |
| 2026-04-22 04:27 | 34.14547 | 112.44599 | 36100 ft | 474 kts | 185° |
| 2026-04-22 04:27 | 34.08005 | 112.45158 | 36097 ft | 469 kts | 185° |
| 2026-04-22 04:28 | 34.01443 | 112.45712 | 36089 ft | 473 kts | 185° |
| 2026-04-22 04:28 | 33.94890 | 112.46268 | 36097 ft | 473 kts | 185° |
| 2026-04-22 04:29 | 33.88307 | 112.46824 | 36089 ft | 473 kts | 185° |
| 2026-04-22 04:29 | 33.81768 | 112.47376 | 36091 ft | 473 kts | 185° |
| 2026-04-22 04:30 | 33.75156 | 112.47933 | 36089 ft | 474 kts | 184° |
| 2026-04-22 04:30 | 33.68632 | 112.48483 | 36089 ft | 474 kts | 185° |
| 2026-04-22 04:31 | 33.62025 | 112.49040 | 36085 ft | 474 kts | 185° |
| 2026-04-22 04:31 | 33.55402 | 112.49604 | 36090 ft | 478 kts | 184° |
| 2026-04-22 04:32 | 33.48808 | 112.50168 | 36084 ft | 477 kts | 184° |
| 2026-04-22 04:32 | 33.42172 | 112.50732 | 36081 ft | 475 kts | 184° |
| 2026-04-22 04:33 | 33.35556 | 112.51293 | 36080 ft | 478 kts | 184° |
| 2026-04-22 04:33 | 33.28946 | 112.51854 | 36077 ft | 477 kts | 184° |
| 2026-04-22 04:34 | 33.22328 | 112.52415 | 36078 ft | 476 kts | 184° |
| 2026-04-22 04:34 | 33.15721 | 112.52972 | 36079 ft | 478 kts | 184° |
| 2026-04-22 04:35 | 33.09121 | 112.53529 | 36073 ft | 477 kts | 184° |
| 2026-04-22 04:35 | 33.02456 | 112.54090 | 36079 ft | 480 kts | 184° |
| 2026-04-22 04:36 | 32.95830 | 112.54649 | 36062 ft | 477 kts | 184° |
| 2026-04-22 04:36 | 32.89275 | 112.54084 | 36068 ft | 467 kts | 200° |
| 2026-04-22 04:37 | 32.83120 | 112.52046 | 36064 ft | 456 kts | 204° |
| 2026-04-22 04:37 | 32.77001 | 112.50008 | 36072 ft | 460 kts | 202° |
| 2026-04-22 04:38 | 32.70822 | 112.48003 | 36064 ft | 455 kts | 202° |
| 2026-04-22 04:38 | 32.64689 | 112.46008 | 35826 ft | 461 kts | 203° |
| 2026-04-22 04:38 | 32.61590 | 112.45001 | 36052 ft | 461 kts | 202° |
| 2026-04-22 04:39 | 32.58515 | 112.44001 | 36069 ft | 467 kts | 203° |
| 2026-04-22 04:39 | 32.52272 | 112.41978 | 35983 ft | 462 kts | 202° |
| 2026-04-22 04:40 | 32.46091 | 112.39973 | 35982 ft | 463 kts | 202° |
| 2026-04-22 04:40 | 32.39860 | 112.37956 | 36059 ft | 465 kts | 202° |
| 2026-04-22 04:41 | 32.33623 | 112.35941 | 36063 ft | 464 kts | 202° |
| 2026-04-22 04:41 | 32.27394 | 112.33930 | 36087 ft | 466 kts | 202° |
| 2026-04-22 04:42 | 32.21136 | 112.31912 | 36088 ft | 465 kts | 202° |
| 2026-04-22 04:42 | 32.14896 | 112.29904 | 36093 ft | 466 kts | 202° |
| 2026-04-22 04:43 | 32.08666 | 112.27904 | 36092 ft | 464 kts | 201° |
| 2026-04-22 04:43 | 32.02235 | 112.26449 | 36091 ft | 471 kts | 197° |
| 2026-04-22 04:43 | 31.98989 | 112.25793 | 36265 ft | 473 kts | 197° |
| 2026-04-22 04:44 | 31.95748 | 112.25138 | 36094 ft | 472 kts | 197° |
| 2026-04-22 04:44 | 31.89347 | 112.23845 | 36091 ft | 469 kts | 197° |
| 2026-04-22 04:45 | 31.82885 | 112.22537 | 36100 ft | 471 kts | 197° |
| 2026-04-22 04:45 | 31.76400 | 112.21227 | 36095 ft | 469 kts | 197° |
| 2026-04-22 04:46 | 31.70013 | 112.19938 | 36094 ft | 469 kts | 197° |
| 2026-04-22 04:46 | 31.63552 | 112.18632 | 36100 ft | 473 kts | 197° |
| 2026-04-22 04:47 | 31.57068 | 112.17328 | 36100 ft | 470 kts | 197° |
| 2026-04-22 04:47 | 31.50629 | 112.16032 | 36087 ft | 471 kts | 197° |
| 2026-04-22 04:48 | 31.44186 | 112.14738 | 36102 ft | 471 kts | 197° |
| 2026-04-22 04:48 | 31.37724 | 112.13380 | 36090 ft | 467 kts | 199° |
| 2026-04-22 04:49 | 31.31375 | 112.11797 | 36093 ft | 469 kts | 200° |
| 2026-04-22 04:49 | 31.25004 | 112.10218 | 36087 ft | 467 kts | 200° |
| 2026-04-22 04:50 | 31.18608 | 112.08641 | 36098 ft | 472 kts | 199° |
| 2026-04-22 04:50 | 31.12195 | 112.07070 | 36097 ft | 469 kts | 199° |
| 2026-04-22 04:51 | 31.05808 | 112.05509 | 36091 ft | 470 kts | 200° |
| 2026-04-22 04:51 | 30.99354 | 112.03934 | 36090 ft | 471 kts | 199° |
| 2026-04-22 04:52 | 30.92993 | 112.02387 | 36098 ft | 469 kts | 200° |
| 2026-04-22 04:52 | 30.86580 | 112.00826 | 36097 ft | 473 kts | 200° |
| 2026-04-22 04:53 | 30.80158 | 111.99268 | 36101 ft | 469 kts | 200° |
| 2026-04-22 04:53 | 30.73720 | 111.97706 | 36106 ft | 473 kts | 200° |
| 2026-04-22 04:54 | 30.67320 | 111.96159 | 36109 ft | 470 kts | 200° |
| 2026-04-22 04:54 | 30.60881 | 111.94610 | 36108 ft | 470 kts | 200° |
| 2026-04-22 04:55 | 30.54521 | 111.93083 | 36100 ft | 468 kts | 200° |
| 2026-04-22 04:55 | 30.48144 | 111.91554 | 36106 ft | 469 kts | 200° |
| 2026-04-22 04:56 | 30.41748 | 111.90022 | 36108 ft | 471 kts | 200° |
| 2026-04-22 04:56 | 30.35332 | 111.88488 | 36113 ft | 469 kts | 200° |
| 2026-04-22 04:57 | 30.28922 | 111.86957 | 36116 ft | 469 kts | 201° |
| 2026-04-22 04:57 | 30.22555 | 111.85439 | 36117 ft | 466 kts | 201° |
| 2026-04-22 04:58 | 30.16155 | 111.83912 | 36116 ft | 471 kts | 201° |
| 2026-04-22 04:58 | 30.09790 | 111.82400 | 36124 ft | 466 kts | 201° |
| 2026-04-22 04:59 | 30.03378 | 111.80875 | 36126 ft | 469 kts | 201° |
| 2026-04-22 04:59 | 29.96946 | 111.79349 | 36128 ft | 470 kts | 201° |
| 2026-04-22 05:00 | 29.90569 | 111.77837 | 36131 ft | 473 kts | 201° |
| 2026-04-22 05:00 | 29.84082 | 111.76303 | 36125 ft | 471 kts | 201° |
| 2026-04-22 05:01 | 29.77707 | 111.74797 | 36121 ft | 472 kts | 201° |
| 2026-04-22 05:01 | 29.71287 | 111.73282 | 36118 ft | 470 kts | 201° |
| 2026-04-22 05:02 | 29.64823 | 111.71757 | 36120 ft | 472 kts | 201° |
| 2026-04-22 05:02 | 29.58432 | 111.70255 | 36120 ft | 469 kts | 201° |
| 2026-04-22 05:03 | 29.51989 | 111.68735 | 36118 ft | 477 kts | 201° |
| 2026-04-22 05:03 | 29.45506 | 111.67217 | 36119 ft | 472 kts | 201° |
| 2026-04-22 05:04 | 29.39083 | 111.65711 | 36125 ft | 471 kts | 201° |
| 2026-04-22 05:04 | 29.32482 | 111.64664 | 36119 ft | 485 kts | 193° |
| 2026-04-22 05:05 | 29.25743 | 111.64304 | 36123 ft | 491 kts | 192° |
| 2026-04-22 05:05 | 29.18924 | 111.63954 | 36125 ft | 485 kts | 192° |
| 2026-04-22 05:06 | 29.12133 | 111.63597 | 36118 ft | 490 kts | 192° |
| 2026-04-22 05:06 | 29.05331 | 111.63242 | 36126 ft | 489 kts | 193° |
| 2026-04-22 05:07 | 28.98563 | 111.62887 | 36124 ft | 487 kts | 193° |
| 2026-04-22 05:07 | 28.91766 | 111.62528 | 36123 ft | 489 kts | 193° |
| 2026-04-22 05:08 | 28.84971 | 111.62172 | 36121 ft | 489 kts | 193° |
| 2026-04-22 05:08 | 28.78268 | 111.61526 | 36117 ft | 482 kts | 196° |
| 2026-04-22 05:09 | 28.71601 | 111.60769 | 36120 ft | 484 kts | 196° |
| 2026-04-22 05:09 | 28.64908 | 111.60025 | 36113 ft | 481 kts | 196° |
| 2026-04-22 05:10 | 28.58239 | 111.59293 | 36111 ft | 486 kts | 195° |
| 2026-04-22 05:10 | 28.51459 | 111.58555 | 36106 ft | 484 kts | 195° |
| 2026-04-22 05:11 | 28.44711 | 111.57822 | 36109 ft | 491 kts | 196° |
| 2026-04-22 05:11 | 28.38006 | 111.57109 | 36109 ft | 483 kts | 196° |
| 2026-04-22 05:12 | 28.31236 | 111.56387 | 36105 ft | 490 kts | 195° |
| 2026-04-22 05:12 | 28.24451 | 111.55672 | 36100 ft | 485 kts | 195° |
| 2026-04-22 05:13 | 28.17784 | 111.54967 | 36096 ft | 485 kts | 195° |
| 2026-04-22 05:13 | 28.11044 | 111.54253 | 36096 ft | 488 kts | 195° |
| 2026-04-22 05:14 | 28.04282 | 111.53541 | 36094 ft | 488 kts | 195° |
| 2026-04-22 05:14 | 27.97495 | 111.52827 | 36093 ft | 485 kts | 195° |
| 2026-04-22 05:15 | 27.90774 | 111.52122 | 36096 ft | 487 kts | 195° |
| 2026-04-22 05:15 | 27.84047 | 111.51416 | 36090 ft | 488 kts | 195° |
| 2026-04-22 05:16 | 27.77238 | 111.50704 | 36091 ft | 487 kts | 195° |
| 2026-04-22 05:16 | 27.70495 | 111.49998 | 36094 ft | 490 kts | 195° |
| 2026-04-22 05:17 | 27.63696 | 111.49289 | 36091 ft | 490 kts | 195° |
| 2026-04-22 05:17 | 27.56920 | 111.48583 | 36093 ft | 489 kts | 195° |
| 2026-04-22 05:18 | 27.46799 | 111.47530 | 36093 ft | 487 kts | 195° |
| 2026-04-22 05:18 | 27.40028 | 111.46825 | 36094 ft | 490 kts | 195° |
| 2026-04-22 05:19 | 27.33210 | 111.46117 | 36096 ft | 490 kts | 195° |
| 2026-04-22 05:19 | 27.26434 | 111.45416 | 36100 ft | 489 kts | 195° |
| 2026-04-22 05:20 | 27.19624 | 111.44708 | 36097 ft | 492 kts | 194° |
| 2026-04-22 05:20 | 27.12860 | 111.44010 | 36099 ft | 489 kts | 194° |
| 2026-04-22 05:21 | 27.06049 | 111.43305 | 36098 ft | 493 kts | 194° |
| 2026-04-22 05:21 | 26.99214 | 111.42601 | 36096 ft | 491 kts | 194° |
| 2026-04-22 05:22 | 26.92552 | 111.41312 | 36094 ft | 475 kts | 208° |
| 2026-04-22 05:22 | 26.89506 | 111.39934 | 36092 ft | 462 kts | 216° |
| 2026-04-22 05:22 | 26.86776 | 111.38171 | 36090 ft | 454 kts | 221° |
| 2026-04-22 05:23 | 26.81440 | 111.34261 | 36095 ft | 456 kts | 221° |
| 2026-04-22 05:23 | 26.76106 | 111.30344 | 36100 ft | 456 kts | 221° |
| 2026-04-22 05:24 | 26.70838 | 111.26482 | 36095 ft | 456 kts | 221° |
| 2026-04-22 05:24 | 26.65472 | 111.22550 | 36092 ft | 458 kts | 221° |
| 2026-04-22 05:25 | 26.60145 | 111.18657 | 36092 ft | 455 kts | 221° |
| 2026-04-22 05:25 | 26.54765 | 111.14841 | 36095 ft | 462 kts | 219° |
| 2026-04-22 05:26 | 26.49312 | 111.11141 | 36096 ft | 458 kts | 219° |
| 2026-04-22 05:26 | 26.43849 | 111.07426 | 36096 ft | 460 kts | 219° |
| 2026-04-22 05:27 | 26.38388 | 111.03711 | 36092 ft | 459 kts | 219° |
| 2026-04-22 05:27 | 26.32947 | 111.00011 | 36095 ft | 459 kts | 219° |
| 2026-04-22 05:28 | 26.27477 | 110.96292 | 36091 ft | 460 kts | 219° |
| 2026-04-22 05:28 | 26.22023 | 110.92589 | 36077 ft | 461 kts | 219° |
| 2026-04-22 05:29 | 26.16575 | 110.88893 | 36075 ft | 459 kts | 219° |
| 2026-04-22 05:29 | 26.11098 | 110.85181 | 36076 ft | 461 kts | 219° |
| 2026-04-22 05:30 | 26.05649 | 110.81493 | 36069 ft | 459 kts | 219° |
| 2026-04-22 05:30 | 26.00139 | 110.77750 | 36110 ft | 462 kts | 219° |
| 2026-04-22 05:31 | 25.94694 | 110.74058 | 36116 ft | 459 kts | 219° |
| 2026-04-22 05:31 | 25.89218 | 110.70345 | 36071 ft | 463 kts | 219° |
| 2026-04-22 05:32 | 25.83724 | 110.66625 | 36057 ft | 464 kts | 219° |
| 2026-04-22 05:32 | 25.78198 | 110.62889 | 36049 ft | 461 kts | 219° |
| 2026-04-22 05:33 | 25.72762 | 110.59193 | 36042 ft | 462 kts | 220° |
| 2026-04-22 05:33 | 25.67286 | 110.55383 | 36046 ft | 461 kts | 220° |
| 2026-04-22 05:34 | 25.61854 | 110.51610 | 36043 ft | 463 kts | 220° |
| 2026-04-22 05:34 | 25.56400 | 110.47830 | 36042 ft | 462 kts | 220° |
| 2026-04-22 05:35 | 25.51037 | 110.43928 | 36039 ft | 461 kts | 221° |
| 2026-04-22 05:35 | 25.45703 | 110.39981 | 36027 ft | 460 kts | 221° |
| 2026-04-22 05:36 | 25.40373 | 110.36035 | 36020 ft | 461 kts | 221° |
| 2026-04-22 05:36 | 25.35027 | 110.32044 | 36034 ft | 462 kts | 221° |
| 2026-04-22 05:37 | 25.29663 | 110.28050 | 36022 ft | 463 kts | 221° |
| 2026-04-22 05:37 | 25.24309 | 110.24070 | 36022 ft | 463 kts | 221° |
| 2026-04-22 05:38 | 25.18960 | 110.20097 | 36026 ft | 464 kts | 221° |
| 2026-04-22 05:38 | 25.13598 | 110.16091 | 36027 ft | 463 kts | 221° |
| 2026-04-22 05:39 | 25.08272 | 110.12116 | 36029 ft | 464 kts | 221° |
| 2026-04-22 05:39 | 25.02919 | 110.08127 | 36017 ft | 463 kts | 221° |
| 2026-04-22 05:40 | 24.97557 | 110.04135 | 36024 ft | 464 kts | 221° |
| 2026-04-22 05:40 | 24.92203 | 110.00154 | 36014 ft | 464 kts | 221° |
| 2026-04-22 05:41 | 24.86820 | 109.96156 | 36007 ft | 463 kts | 221° |
| 2026-04-22 05:41 | 24.81487 | 109.92198 | 36008 ft | 464 kts | 221° |
| 2026-04-22 05:42 | 24.76146 | 109.88240 | 36005 ft | 464 kts | 221° |
| 2026-04-22 05:42 | 24.70748 | 109.84243 | 35993 ft | 465 kts | 221° |
| 2026-04-22 05:43 | 24.65422 | 109.80298 | 35992 ft | 465 kts | 221° |
| 2026-04-22 05:43 | 24.60057 | 109.76302 | 35978 ft | 465 kts | 221° |
| 2026-04-22 05:44 | 24.54699 | 109.72317 | 35968 ft | 464 kts | 221° |
| 2026-04-22 05:44 | 24.49311 | 109.68314 | 35959 ft | 465 kts | 221° |
| 2026-04-22 05:45 | 24.43949 | 109.64336 | 35955 ft | 464 kts | 220° |
| 2026-04-22 05:45 | 24.38574 | 109.60352 | 35951 ft | 465 kts | 221° |
| 2026-04-22 05:46 | 24.33186 | 109.56373 | 35951 ft | 466 kts | 221° |
| 2026-04-22 05:46 | 24.27829 | 109.52424 | 35956 ft | 465 kts | 220° |
| 2026-04-22 05:47 | 24.22425 | 109.48444 | 35959 ft | 466 kts | 220° |
| 2026-04-22 05:47 | 24.17090 | 109.44520 | 35948 ft | 464 kts | 221° |
| 2026-04-22 05:48 | 24.11723 | 109.40575 | 35952 ft | 465 kts | 221° |
| 2026-04-22 05:48 | 24.06350 | 109.36630 | 35943 ft | 465 kts | 220° |
| 2026-04-22 05:49 | 24.00956 | 109.32673 | 35957 ft | 466 kts | 220° |
| 2026-04-22 05:49 | 23.95554 | 109.28715 | 35950 ft | 466 kts | 220° |
| 2026-04-22 05:50 | 23.90207 | 109.24803 | 35945 ft | 464 kts | 220° |
| 2026-04-22 05:50 | 23.84819 | 109.20862 | 35936 ft | 464 kts | 220° |
| 2026-04-22 05:51 | 23.79170 | 109.17355 | 35927 ft | 474 kts | 208° |
| 2026-04-22 05:51 | 23.72648 | 109.15643 | 35930 ft | 494 kts | 191° |
| 2026-04-22 05:52 | 23.65717 | 109.16000 | 35926 ft | 505 kts | 179° |
| 2026-04-22 05:52 | 23.58699 | 109.16962 | 35924 ft | 506 kts | 179° |
| 2026-04-22 05:53 | 23.51707 | 109.17910 | 35923 ft | 505 kts | 179° |
| 2026-04-22 05:53 | 23.44692 | 109.18851 | 35912 ft | 504 kts | 179° |
| 2026-04-22 05:54 | 23.37707 | 109.19783 | 35909 ft | 504 kts | 179° |
| 2026-04-22 05:54 | 23.30712 | 109.20710 | 35908 ft | 505 kts | 179° |
| 2026-04-22 05:55 | 23.23730 | 109.21635 | 35903 ft | 504 kts | 179° |
| 2026-04-22 05:55 | 23.16708 | 109.22562 | 35910 ft | 506 kts | 179° |
| 2026-04-22 05:56 | 23.09717 | 109.23484 | 35912 ft | 504 kts | 179° |
| 2026-04-22 05:56 | 23.02737 | 109.24403 | 35924 ft | 505 kts | 179° |
| 2026-04-22 05:57 | 22.95743 | 109.25324 | 35924 ft | 504 kts | 179° |
| 2026-04-22 05:57 | 22.88782 | 109.26238 | 35911 ft | 506 kts | 179° |
| 2026-04-22 05:58 | 22.81779 | 109.27158 | 35895 ft | 504 kts | 179° |
| 2026-04-22 05:58 | 22.74821 | 109.28070 | 35886 ft | 505 kts | 179° |
| 2026-04-22 05:59 | 22.67816 | 109.28987 | 35888 ft | 506 kts | 179° |
| 2026-04-22 05:59 | 22.60841 | 109.29900 | 35896 ft | 504 kts | 178° |
| 2026-04-22 06:00 | 22.53842 | 109.30815 | 35901 ft | 505 kts | 179° |
| 2026-04-22 06:00 | 22.46821 | 109.31731 | 35904 ft | 505 kts | 178° |
| 2026-04-22 06:01 | 22.39775 | 109.32652 | 35909 ft | 504 kts | 178° |
| 2026-04-22 06:01 | 22.32742 | 109.33567 | 35914 ft | 506 kts | 178° |
| 2026-04-22 06:02 | 22.25762 | 109.34476 | 35912 ft | 505 kts | 178° |
| 2026-04-22 06:02 | 22.18753 | 109.35388 | 35907 ft | 505 kts | 178° |
| 2026-04-22 06:03 | 22.11784 | 109.36294 | 35906 ft | 503 kts | 178° |
| 2026-04-22 06:03 | 22.04825 | 109.37196 | 35905 ft | 504 kts | 178° |
| 2026-04-22 06:04 | 21.97831 | 109.38103 | 35903 ft | 505 kts | 178° |
| 2026-04-22 06:04 | 21.90862 | 109.39006 | 35901 ft | 504 kts | 178° |
| 2026-04-22 06:05 | 21.83861 | 109.39912 | 35896 ft | 503 kts | 178° |
| 2026-04-22 06:05 | 21.76887 | 109.40813 | 35897 ft | 504 kts | 178° |
| 2026-04-22 06:06 | 21.69925 | 109.41712 | 35678 ft | 508 kts | 178° |
| 2026-04-22 06:06 | 21.66367 | 109.42171 | 35227 ft | 509 kts | 178° |
| 2026-04-22 06:06 | 21.62837 | 109.42641 | 34737 ft | 507 kts | 175° |
| 2026-04-22 06:07 | 21.59390 | 109.43484 | 34215 ft | 511 kts | 166° |
| 2026-04-22 06:07 | 21.56084 | 109.44861 | 33605 ft | 519 kts | 158° |
| 2026-04-22 06:07 | 21.52863 | 109.46722 | 32983 ft | 525 kts | 153° |
| 2026-04-22 06:07 | 21.49706 | 109.48676 | 32403 ft | 527 kts | 153° |
| 2026-04-22 06:08 | 21.46533 | 109.50647 | 31843 ft | 527 kts | 152° |
| 2026-04-22 06:08 | 21.43373 | 109.52608 | 31284 ft | 527 kts | 152° |
| 2026-04-22 06:08 | 21.40193 | 109.54578 | 30728 ft | 527 kts | 152° |
| 2026-04-22 06:08 | 21.36988 | 109.56562 | 30169 ft | 528 kts | 152° |
| 2026-04-22 06:09 | 21.33742 | 109.58396 | 29605 ft | 521 kts | 159° |
| 2026-04-22 06:09 | 21.30364 | 109.59708 | 29054 ft | 512 kts | 168° |
| 2026-04-22 06:09 | 21.26950 | 109.60477 | 28508 ft | 503 kts | 174° |
| 2026-04-22 06:09 | 21.23480 | 109.61017 | 27968 ft | 498 kts | 175° |
| 2026-04-22 06:10 | 21.20080 | 109.61521 | 27437 ft | 493 kts | 175° |
| 2026-04-22 06:10 | 21.16671 | 109.62022 | 26901 ft | 488 kts | 175° |
| 2026-04-22 06:10 | 21.13341 | 109.62510 | 26369 ft | 484 kts | 175° |
| 2026-04-22 06:10 | 21.10016 | 109.62996 | 25838 ft | 480 kts | 175° |
| 2026-04-22 06:11 | 21.06709 | 109.63477 | 25306 ft | 475 kts | 175° |
| 2026-04-22 06:11 | 21.03436 | 109.63953 | 24775 ft | 471 kts | 175° |
| 2026-04-22 06:11 | 21.00235 | 109.64417 | 24252 ft | 468 kts | 175° |
| 2026-04-22 06:11 | 20.97006 | 109.64886 | 23722 ft | 464 kts | 175° |
| 2026-04-22 06:12 | 20.93823 | 109.65346 | 23184 ft | 460 kts | 175° |
| 2026-04-22 06:12 | 20.90668 | 109.65803 | 22649 ft | 457 kts | 175° |
| 2026-04-22 06:12 | 20.87518 | 109.66259 | 22112 ft | 453 kts | 175° |
| 2026-04-22 06:12 | 20.84397 | 109.66710 | 21575 ft | 450 kts | 175° |
| 2026-04-22 06:13 | 20.81303 | 109.67157 | 21081 ft | 446 kts | 175° |
| 2026-04-22 06:13 | 20.78252 | 109.67597 | 20602 ft | 441 kts | 175° |
| 2026-04-22 06:13 | 20.75221 | 109.68034 | 20130 ft | 438 kts | 175° |
| 2026-04-22 06:13 | 20.72195 | 109.68471 | 19662 ft | 435 kts | 175° |
| 2026-04-22 06:14 | 20.69188 | 109.68904 | 19182 ft | 432 kts | 175° |
| 2026-04-22 06:14 | 20.66241 | 109.69329 | 18701 ft | 428 kts | 175° |
| 2026-04-22 06:14 | 20.63289 | 109.69755 | 18219 ft | 424 kts | 175° |
| 2026-04-22 06:14 | 20.60374 | 109.70174 | 17765 ft | 419 kts | 175° |
| 2026-04-22 06:15 | 20.57504 | 109.70588 | 17380 ft | 412 kts | 175° |
| 2026-04-22 06:15 | 20.54701 | 109.70991 | 16905 ft | 409 kts | 174° |
| 2026-04-22 06:15 | 20.51911 | 109.71612 | 16351 ft | 409 kts | 165° |
| 2026-04-22 06:15 | 20.49266 | 109.72781 | 15947 ft | 406 kts | 153° |
| 2026-04-22 06:16 | 20.46927 | 109.74390 | 15412 ft | 407 kts | 144° |
| 2026-04-22 06:16 | 20.44684 | 109.76293 | 14676 ft | 410 kts | 142° |
| 2026-04-22 06:16 | 20.42495 | 109.78191 | 14048 ft | 411 kts | 142° |
| 2026-04-22 06:16 | 20.40266 | 109.80125 | 13418 ft | 410 kts | 142° |
| 2026-04-22 06:17 | 20.38059 | 109.82040 | 12821 ft | 407 kts | 142° |
| 2026-04-22 06:17 | 20.35874 | 109.83935 | 12244 ft | 405 kts | 142° |
| 2026-04-22 06:17 | 20.33702 | 109.85819 | 11650 ft | 403 kts | 142° |
| 2026-04-22 06:17 | 20.31539 | 109.87694 | 11069 ft | 400 kts | 142° |
| 2026-04-22 06:18 | 20.29405 | 109.89544 | 10826 ft | 387 kts | 142° |
| 2026-04-22 06:18 | 20.27360 | 109.91317 | 10732 ft | 371 kts | 142° |
| 2026-04-22 06:18 | 20.25384 | 109.93029 | 10619 ft | 358 kts | 142° |
| 2026-04-22 06:18 | 20.23489 | 109.94669 | 10459 ft | 346 kts | 142° |
| 2026-04-22 06:19 | 20.21656 | 109.96255 | 10281 ft | 334 kts | 142° |
| 2026-04-22 06:19 | 20.19878 | 109.97795 | 10157 ft | 319 kts | 142° |
| 2026-04-22 06:19 | 20.18180 | 109.99264 | 9962 ft | 309 kts | 142° |
| 2026-04-22 06:19 | 20.16523 | 110.00695 | 9655 ft | 306 kts | 142° |
| 2026-04-22 06:20 | 20.14868 | 110.02125 | 9228 ft | 302 kts | 142° |
| 2026-04-22 06:20 | 20.13264 | 110.03511 | 8821 ft | 297 kts | 142° |
| 2026-04-22 06:20 | 20.11652 | 110.04904 | 8425 ft | 296 kts | 142° |
| 2026-04-22 06:20 | 20.10064 | 110.06274 | 8043 ft | 297 kts | 142° |
| 2026-04-22 06:21 | 20.08462 | 110.07658 | 7776 ft | 293 kts | 142° |
| 2026-04-22 06:21 | 20.06884 | 110.09021 | 7351 ft | 293 kts | 142° |
| 2026-04-22 06:21 | 20.05317 | 110.10373 | 7024 ft | 288 kts | 142° |
| 2026-04-22 06:21 | 20.03781 | 110.11700 | 6932 ft | 275 kts | 142° |
| 2026-04-22 06:22 | 20.02312 | 110.12917 | 6833 ft | 261 kts | 150° |
| 2026-04-22 06:22 | 20.00661 | 110.13529 | 6703 ft | 246 kts | 172° |
| 2026-04-22 06:22 | 19.98961 | 110.13696 | 6405 ft | 242 kts | 179° |
| 2026-04-22 06:22 | 19.97294 | 110.13753 | 6062 ft | 235 kts | 180° |
| 2026-04-22 06:23 | 19.95679 | 110.13935 | 5736 ft | 229 kts | 163° |
| 2026-04-22 06:23 | 19.94376 | 110.14855 | 5455 ft | 225 kts | 138° |
| 2026-04-22 06:23 | 19.93567 | 110.16224 | 5170 ft | 222 kts | 107° |
| 2026-04-22 06:23 | 19.93403 | 110.17842 | 4883 ft | 218 kts | 94° |
| 2026-04-22 06:24 | 19.93380 | 110.21007 | 4322 ft | 210 kts | 92° |
| 2026-04-22 06:24 | 19.93389 | 110.22544 | 4043 ft | 206 kts | 91° |
| 2026-04-22 06:24 | 19.93400 | 110.24054 | 3770 ft | 203 kts | 92° |
| 2026-04-22 06:25 | 19.93410 | 110.25528 | 3500 ft | 200 kts | 92° |
| 2026-04-22 06:25 | 19.93418 | 110.27006 | 3235 ft | 197 kts | 92° |
| 2026-04-22 06:25 | 19.93424 | 110.28432 | 2963 ft | 194 kts | 92° |
| 2026-04-22 06:25 | 19.93429 | 110.29839 | 2714 ft | 183 kts | 91° |
| 2026-04-22 06:26 | 19.93434 | 110.31124 | 2482 ft | 165 kts | 91° |
| 2026-04-22 06:26 | 19.93438 | 110.32317 | 2270 ft | 160 kts | 90° |
| 2026-04-22 06:26 | 19.93441 | 110.33488 | 2057 ft | 157 kts | 89° |
| 2026-04-22 06:26 | 19.93445 | 110.34650 | 1839 ft | 159 kts | 89° |
| 2026-04-22 06:27 | 19.93448 | 110.35824 | 1621 ft | 158 kts | 88° |
| 2026-04-22 06:27 | 19.93453 | 110.36974 | 1408 ft | 157 kts | 88° |
| 2026-04-22 06:27 | 19.93456 | 110.38137 | 1195 ft | 155 kts | 89° |
| 2026-04-22 06:27 | 19.93467 | 110.39287 | 971 ft | 153 kts | 89° |
| 2026-04-22 06:28 | 19.93456 | 110.40417 | 775 ft | 154 kts | 90° |
| 2026-04-22 06:28 | 19.93468 | 110.41535 | 573 ft | 148 kts | 92° |
| 2026-04-22 06:28 | 19.93467 | 110.42625 | 385 ft | 146 kts | 91° |
| 2026-04-22 06:28 | 19.93474 | 110.43677 | 186 ft | 139 kts | 93° |
| 2026-04-22 06:29 | 19.93473 | 110.44705 | 82 ft | 131 kts | 89° |
| 2026-04-22 06:29 | 19.93467 | 110.45618 | 77 ft | 112 kts | 91° |
| 2026-04-22 06:29 | 19.93453 | 110.46408 | 78 ft | 102 kts | 92° |
| 2026-04-22 06:29 | 19.93399 | 110.47208 | 77 ft | 133 kts | 95° |
| 2026-04-22 06:30 | 19.93380 | 110.48209 | 777 ft | 139 kts | 89° |
| 2026-04-22 06:30 | 19.93436 | 110.49271 | 1422 ft | 157 kts | 89° |
| 2026-04-22 06:30 | 19.93482 | 110.50425 | 1754 ft | 164 kts | 89° |
| 2026-04-22 06:30 | 19.93536 | 110.51708 | 1654 ft | 184 kts | 89° |
| 2026-04-22 06:31 | 19.93602 | 110.53175 | 1544 ft | 216 kts | 89° |
| 2026-04-22 06:31 | 19.93467 | 110.54827 | 1530 ft | 230 kts | 113° |
| 2026-04-22 06:31 | 19.92516 | 110.56156 | 1511 ft | 227 kts | 147° |
| 2026-04-22 06:31 | 19.91046 | 110.56667 | 1509 ft | 220 kts | 180° |
| 2026-04-22 06:32 | 19.89601 | 110.56239 | 1505 ft | 220 kts | 212° |
| 2026-04-22 06:32 | 19.88601 | 110.55025 | 1511 ft | 220 kts | 243° |
| 2026-04-22 06:32 | 19.88055 | 110.53520 | 1527 ft | 220 kts | 248° |
| 2026-04-22 06:32 | 19.87535 | 110.51972 | 1525 ft | 220 kts | 249° |
| 2026-04-22 06:33 | 19.87024 | 110.50446 | 1526 ft | 220 kts | 250° |
| 2026-04-22 06:33 | 19.85079 | 110.44620 | 1543 ft | 224 kts | 250° |
| 2026-04-22 06:33 | 19.84721 | 110.42993 | 1525 ft | 228 kts | 266° |
| 2026-04-22 06:33 | 19.84812 | 110.41334 | 1525 ft | 221 kts | 274° |
| 2026-04-22 06:34 | 19.84965 | 110.21636 | 1521 ft | 211 kts | 270° |
| 2026-04-22 06:34 | 19.85222 | 110.20086 | 1516 ft | 216 kts | 295° |
| 2026-04-22 06:34 | 19.86101 | 110.18855 | 1509 ft | 204 kts | 314° |
| 2026-04-22 06:34 | 19.89212 | 110.15597 | 1501 ft | 187 kts | 328° |
| 2026-04-22 06:35 | 19.90400 | 110.15185 | 1494 ft | 175 kts | 356° |
| 2026-04-22 06:35 | 19.91547 | 110.15404 | 1485 ft | 159 kts | 23° |
| 2026-04-22 06:35 | 19.92455 | 110.16045 | 1501 ft | 157 kts | 36° |
| 2026-04-22 06:35 | 19.93086 | 110.16961 | 1505 ft | 154 kts | 67° |
| 2026-04-22 06:36 | 19.93322 | 110.18063 | 1508 ft | 155 kts | 83° |
| 2026-04-22 06:36 | 19.93552 | 110.27817 | 1647 ft | 157 kts | 87° |
| 2026-04-22 06:36 | 19.93557 | 110.32789 | 1655 ft | 167 kts | 106° |
| 2026-04-22 06:36 | 19.93348 | 110.33965 | 1515 ft | 157 kts | 79° |
| 2026-04-22 06:37 | 19.93465 | 110.35129 | 1514 ft | 157 kts | 88° |
| 2026-04-22 06:37 | 19.93439 | 110.36273 | 1492 ft | 156 kts | 88° |
| 2026-04-22 06:37 | 19.93448 | 110.37401 | 1288 ft | 148 kts | 87° |
| 2026-04-22 06:37 | 19.93452 | 110.38484 | 1101 ft | 142 kts | 89° |
| 2026-04-22 06:38 | 19.93455 | 110.39563 | 920 ft | 149 kts | 89° |
| 2026-04-22 06:38 | 19.93465 | 110.42347 | 397 ft | 152 kts | 91° |
| 2026-04-22 06:38 | 19.93471 | 110.43449 | 238 ft | 149 kts | 92° |
| 2026-04-22 06:38 | 19.93479 | 110.44552 | 93 ft | 146 kts | 89° |
| 2026-04-22 06:39 | 19.93469 | 110.45505 | 75 ft | 108 kts | 89° |
| 2026-04-22 06:39 | 19.93482 | 110.46178 | 77 ft | 73 kts | 89° |
| 2026-04-22 06:39 | 19.93572 | 110.46619 | 77 ft | 25 kts | 46° |
| 2026-04-22 06:39 | 19.93735 | 110.46663 | 77 ft | 7 kts | 312° |
| 2026-04-22 06:40 | 19.93734 | 110.46442 | 78 ft | 5 kts | 270° |
| 2026-04-22 06:40 | 19.93743 | 110.46220 | 80 ft | 3 kts | 313° |
| 2026-04-22 06:40 | 19.93777 | 110.46204 | 80 ft | 3 kts | 355° |
| 2026-04-22 06:40 | 19.93858 | 110.46203 | 80 ft | 0 kts | 359° |